Tropical Cyclones
[Index]
Season 2020-2021 Tropical Cyclone 202118 Track Map
Season 2020-2021 Summaries (Operational Data): [AU] [SIO] [SPAC] [SH]
<<- Previous TC | 2020-2021 Season | Next TC ->>

click for intensity scale information  Lat/long Grid: Show Hide

 Date Labels: Show Hide

Operational Tropical Cyclone Data

Name: 202118
Number: 2118

28 Jan 2021 18:00 UTC to 06 Feb 2021 12:00 UTC

    date/time    lat    long     hPa   cat  kts
2021-01-28 18   15.9   126.6    1002         15          
2021-01-29 00   16.4   126.1    1010         15          
2021-01-29 06   16.8   125.8     998         20          
2021-01-29 12   17.2   125.6    1000         20          
2021-01-29 18   17.6   125.4     998         20          
2021-01-30 00   17.9   125.1    1000         20          
2021-01-30 06   18.3   124.6     995         25          
2021-01-30 12   18.7   124.0     995         25          
2021-01-30 18   19.2   123.5     996         25          
2021-01-31 00   20.1   122.9     999         25          
2021-01-31 06   21.0   122.3     999         25          
2021-01-31 12   21.4   121.1     998         25          
2021-01-31 18   21.3   120.2     997         25          
2021-02-01 00   20.7   119.4     997         25          
2021-02-01 06   20.6   119.0     997         25          
2021-02-01 12   21.1   118.1     996         25          
2021-02-01 18   21.5   117.1     992         25          
2021-02-02 00   22.2   116.3     996         25          
2021-02-02 06   22.9   115.7     998         25          
2021-02-02 12   23.6   115.1     998         25          
2021-02-02 18   24.0   114.5     998         25          
2021-02-03 00   23.8   114.4     997         25          
2021-02-03 06   23.9   114.3     994         25          
2021-02-03 12   23.8   114.4     992         25          
2021-02-03 18   23.8   114.8     992         25          
2021-02-04 00   24.3   114.3     993         25          
2021-02-04 06   24.4   113.7     991         30          
2021-02-04 12   24.6   113.4     992         30          
2021-02-04 18   24.8   113.1     996         30          
2021-02-05 00   25.0   112.3     996         30          
2021-02-05 06   24.9   111.9     992         30          
2021-02-05 12   24.8   112.3     991         30          
2021-02-05 18   25.2   112.9     995         30          
2021-02-06 00   26.0   113.0     995         30          
2021-02-06 06   27.1   113.3     996         30          
2021-02-06 12   28.0   113.9     995         25          
Winds were reported as (or converted to) 10-min average.

Tropical cyclone tracks developed by Michael Bath using operational warnings and advisories and Google Maps.


Document: tropical_cyclone_202118.htm
Updated: 7 May 2021
[Australian Severe Weather index] [Copyright Notice] [Email Contacts] [Search This Site] [Privacy Policy]


Main Index Home Page Stock Weather Photos Extreme Storms Discussion Storm News and Storm Chasing Reports Tropical Cyclones / Hurricanes / Typhoons Weather Data and Links Wild Fires / Bushfires Weather Observation Techniques Weather Picture Catalogue Tornado Pictures and Reports Stock Video Footage and DVDs for sale